Dundee, Texas
Current Conditions -  °F | °C
As of 11:15 AM on Friday 31 Oct 2014 (Local Time) from KCWC Reporting Station
Clear Clear  
Wind Chill: 55°   Ceiling: Unl
Heat Index: 55°   Visibility: 10mi
Dew Point: 38°   Wind: 8mph
Humidity: 52%   Direction: 10°N
Pressure: 30.44"   Gusts: NA
Location:  33.6107°N, 98.6955°W
Report Text: KCWC 311615Z AUTO 01007KT 330V030 10SM CLR 13/03 A3044 RMK AO2 T01300034
Loading
Personal Weather Stations






























Interactive Weather Map
Tropical Storm Tracking
New forecast layout! Learn more

10-Day Weather Forecast

Advertisements
Track Severe Weather on mobile